Time;durP1;ratioP1;P1;durP2;ratioP2;P2;SDS_P1;SDS_P2;PMS_P1;PMS_P2;Temp;Humidity;BMP_temperature;BMP_pressure;BME280_temperature;BME280_humidity;BME280_pressure;Samples;Min_cycle;Max_cycle;Signal;HPM_P1;HPM_P2
2022/10/06 00:02:59;;;;;;;14.10;7.70;;;;;;;;;;5051954;28;20484;-71
2022/10/06 00:06:05;;;;;;;16.30;8.65;;;;;;;;;;5052038;28;20033;-72
2022/10/06 00:09:09;;;;;;;15.32;7.40;;;;;;;;;;5051875;28;20484;-72
2022/10/06 00:12:13;;;;;;;14.20;7.78;;;;;;;;;;5050995;28;20029;-74
2022/10/06 00:15:21;;;;;;;16.38;8.10;;;;;;;;;;5051780;28;20109;-72
2022/10/06 00:18:26;;;;;;;17.65;7.70;;;;;;;;;;5052449;28;20029;-72
2022/10/06 00:21:30;;;;;;;15.77;7.00;;;;;;;;;;5039546;28;20044;-73
2022/10/06 00:24:35;;;;;;;14.93;7.93;;;;;;;;;;5051124;28;20033;-73
2022/10/06 00:27:40;;;;;;;15.05;8.23;;;;;;;;;;5051363;28;20040;-72
2022/10/06 00:30:45;;;;;;;16.15;9.60;;;;;;;;;;5050960;28;20041;-72
2022/10/06 00:33:50;;;;;;;15.27;7.78;;;;;;;;;;5050949;28;20033;-72
2022/10/06 00:36:54;;;;;;;13.10;7.43;;;;;;;;;;5051844;28;20489;-72
2022/10/06 00:39:58;;;;;;;11.75;7.30;;;;;;;;;;5051665;28;20033;-73
2022/10/06 00:43:04;;;;;;;14.77;8.10;;;;;;;;;;5050846;28;20053;-73
2022/10/06 00:46:11;;;;;;;13.80;7.53;;;;;;;;;;5051622;28;20041;-73
2022/10/06 00:49:36;;;;;;;13.80;7.85;;;;;;;;;;5050386;28;20497;-72
2022/10/06 00:52:41;;;;;;;15.60;8.38;;;;;;;;;;5050656;28;20049;-72
2022/10/06 00:55:45;;;;;;;16.30;6.88;;;;;;;;;;5051571;28;20040;-71
2022/10/06 00:58:50;;;;;;;12.27;7.20;;;;;;;;;;5050263;28;20032;-72
2022/10/06 01:02:14;;;;;;;16.42;7.18;;;;;;;;;;5049882;28;20041;-72
2022/10/06 01:05:26;;;;;;;12.15;7.18;;;;;;;;;;5055800;28;20044;-72
2022/10/06 01:08:31;;;;;;;14.30;6.88;;;;;;;;;;5051198;28;20044;-73
2022/10/06 01:11:36;;;;;;;14.43;7.35;;;;;;;;;;5050886;28;20366;-73
2022/10/06 01:14:41;;;;;;;13.00;7.13;;;;;;;;;;5051238;28;20045;-72
2022/10/06 01:17:53;;;;;;;14.68;6.97;;;;;;;;;;5051186;28;20041;-72
2022/10/06 01:21:15;;;;;;;12.30;7.10;;;;;;;;;;5050137;28;20040;-73
2022/10/06 01:24:19;;;;;;;15.50;7.43;;;;;;;;;;5050256;28;20033;-72
2022/10/06 01:27:25;;;;;;;13.70;6.93;;;;;;;;;;5050674;28;20048;-72
2022/10/06 01:30:38;;;;;;;14.18;7.40;;;;;;;;;;5038586;28;20041;-74
2022/10/06 01:33:43;;;;;;;14.02;7.15;;;;;;;;;;5049846;28;20033;-73
2022/10/06 01:36:49;;;;;;;14.88;7.47;;;;;;;;;;5038682;28;20033;-73
2022/10/06 01:39:53;;;;;;;12.77;7.07;;;;;;;;;;5050009;28;20422;-72
2022/10/06 01:43:16;;;;;;;12.48;7.25;;;;;;;;;;5050027;28;20045;-72
2022/10/06 01:46:21;;;;;;;15.90;7.43;;;;;;;;;;5049975;28;20045;-72
2022/10/06 01:49:26;;;;;;;13.65;7.38;;;;;;;;;;5038395;28;20049;-73
2022/10/06 01:52:31;;;;;;;16.33;6.97;;;;;;;;;;5050049;28;20033;-72
2022/10/06 01:55:35;;;;;;;15.00;7.68;;;;;;;;;;5050519;28;20037;-72
2022/10/06 01:58:41;;;;;;;14.85;8.27;;;;;;;;;;5038374;28;20033;-72
2022/10/06 02:01:46;;;;;;;15.85;7.65;;;;;;;;;;5049644;28;20049;-73
2022/10/06 02:04:51;;;;;;;15.52;7.72;;;;;;;;;;5038300;28;20394;-72
2022/10/06 02:07:56;;;;;;;11.38;7.22;;;;;;;;;;5049428;28;20032;-71
2022/10/06 02:11:05;;;;;;;19.67;8.25;;;;;;;;;;5049361;28;20037;-71
2022/10/06 02:14:09;;;;;;;15.35;7.43;;;;;;;;;;5050801;28;20037;-72
2022/10/06 02:17:13;;;;;;;15.77;7.32;;;;;;;;;;5042017;28;20037;-72
2022/10/06 02:20:18;;;;;;;12.85;7.35;;;;;;;;;;5053429;28;20040;-73
2022/10/06 02:23:22;;;;;;;14.02;7.10;;;;;;;;;;5053991;28;20029;-72
2022/10/06 02:26:27;;;;;;;17.77;7.68;;;;;;;;;;5053312;28;20045;-73
2022/10/06 02:29:31;;;;;;;17.80;7.43;;;;;;;;;;5053232;28;20049;-72
2022/10/06 02:32:37;;;;;;;14.07;7.28;;;;;;;;;;5053267;28;20033;-72
2022/10/06 02:35:42;;;;;;;17.67;7.30;;;;;;;;;;5053285;28;20378;-73
2022/10/06 02:38:46;;;;;;;17.88;6.85;;;;;;;;;;5052896;28;20045;-72
2022/10/06 02:41:51;;;;;;;16.98;7.88;;;;;;;;;;5053206;28;20040;-73
2022/10/06 02:44:57;;;;;;;14.80;7.75;;;;;;;;;;5052739;28;20041;-72
2022/10/06 02:48:02;;;;;;;17.13;8.23;;;;;;;;;;5052756;28;20052;-72
2022/10/06 02:51:10;;;;;;;16.48;8.23;;;;;;;;;;5052401;28;20033;-72
2022/10/06 02:54:15;;;;;;;16.20;7.70;;;;;;;;;;5052790;28;20052;-73
2022/10/06 02:57:19;;;;;;;17.25;7.40;;;;;;;;;;5053459;28;20180;-74
2022/10/06 03:00:23;;;;;;;14.15;7.55;;;;;;;;;;5052486;28;20033;-72
2022/10/06 03:03:28;;;;;;;17.90;7.75;;;;;;;;;;5053254;28;20037;-72
2022/10/06 03:06:32;;;;;;;14.75;7.70;;;;;;;;;;5041174;28;20041;-71
2022/10/06 03:10:06;;;;;;;19.40;7.75;;;;;;;;;;5052941;28;20045;-73
2022/10/06 03:13:11;;;;;;;19.23;8.20;;;;;;;;;;5052537;28;20366;-72
2022/10/06 03:16:18;;;;;;;14.43;7.80;;;;;;;;;;5052987;28;20488;-72
2022/10/06 03:19:23;;;;;;;16.90;7.93;;;;;;;;;;5052386;28;20041;-71
2022/10/06 03:22:27;;;;;;;17.70;8.55;;;;;;;;;;5052307;28;20037;-71
2022/10/06 03:25:33;;;;;;;18.48;8.75;;;;;;;;;;5052309;28;20041;-73
2022/10/06 03:28:39;;;;;;;15.95;7.88;;;;;;;;;;5051961;28;20049;-72
2022/10/06 03:31:44;;;;;;;18.25;8.82;;;;;;;;;;5051880;28;20033;-73
2022/10/06 03:34:49;;;;;;;18.25;9.75;;;;;;;;;;5052095;28;20037;-72
2022/10/06 03:37:54;;;;;;;13.98;9.13;;;;;;;;;;5052025;28;20041;-72
2022/10/06 03:41:06;;;;;;;23.35;9.85;;;;;;;;;;5051639;28;20032;-73
2022/10/06 03:44:10;;;;;;;18.50;10.40;;;;;;;;;;5040242;28;20037;-71
2022/10/06 03:47:18;;;;;;;13.32;8.85;;;;;;;;;;5051678;28;20044;-72
2022/10/06 03:50:23;;;;;;;17.83;9.48;;;;;;;;;;5040112;28;20041;-72
2022/10/06 03:53:28;;;;;;;16.67;8.40;;;;;;;;;;5051793;28;20037;-73
2022/10/06 03:56:34;;;;;;;17.23;10.20;;;;;;;;;;5051428;28;20037;-72
2022/10/06 03:59:39;;;;;;;17.38;8.73;;;;;;;;;;5051434;28;20055;-73
2022/10/06 04:02:44;;;;;;;24.35;10.07;;;;;;;;;;5051552;28;20037;-72
2022/10/06 04:05:55;;;;;;;17.65;9.02;;;;;;;;;;5051345;28;20048;-72
2022/10/06 04:09:01;;;;;;;17.25;8.65;;;;;;;;;;5051222;28;20049;-72
2022/10/06 04:12:07;;;;;;;17.65;8.88;;;;;;;;;;5051415;28;20033;-73
2022/10/06 04:15:14;;;;;;;16.55;8.63;;;;;;;;;;5051027;28;20033;-72
2022/10/06 04:18:19;;;;;;;25.10;9.75;;;;;;;;;;5039813;28;20037;-73
2022/10/06 04:21:24;;;;;;;18.75;8.70;;;;;;;;;;5051707;28;20037;-73
2022/10/06 04:24:29;;;;;;;18.88;8.65;;;;;;;;;;5051009;28;20044;-73
2022/10/06 04:27:35;;;;;;;18.40;8.50;;;;;;;;;;5050683;28;20378;-72
2022/10/06 04:30:43;;;;;;;16.98;8.30;;;;;;;;;;5050919;28;20049;-72
2022/10/06 04:33:49;;;;;;;23.98;8.65;;;;;;;;;;5051831;28;20377;-72
2022/10/06 04:36:54;;;;;;;12.82;8.05;;;;;;;;;;5051085;28;20481;-74
2022/10/06 04:39:59;;;;;;;15.88;7.70;;;;;;;;;;5050776;28;20048;-73
2022/10/06 04:43:04;;;;;;;16.67;6.95;;;;;;;;;;5050834;28;20041;-74
2022/10/06 04:46:09;;;;;;;17.58;8.05;;;;;;;;;;5050779;28;20037;-72
2022/10/06 04:49:14;;;;;;;12.60;7.40;;;;;;;;;;5050495;28;20044;-72
2022/10/06 04:52:18;;;;;;;15.23;6.82;;;;;;;;;;5050465;28;20041;-71
2022/10/06 04:55:23;;;;;;;14.77;7.20;;;;;;;;;;5051229;28;20048;-72
2022/10/06 04:58:32;;;;;;;14.20;7.20;;;;;;;;;;5050320;28;20405;-73
2022/10/06 05:01:37;;;;;;;12.38;7.30;;;;;;;;;;5050361;28;20044;-73
2022/10/06 05:04:45;;;;;;;19.17;8.45;;;;;;;;;;5050086;28;20033;-73
2022/10/06 05:07:52;;;;;;;17.05;8.20;;;;;;;;;;5050064;28;20288;-72
2022/10/06 05:11:04;;;;;;;22.92;8.50;;;;;;;;;;5038479;28;20041;-73
2022/10/06 05:14:08;;;;;;;22.08;8.30;;;;;;;;;;5038374;28;20362;-72
2022/10/06 05:17:15;;;;;;;26.45;8.48;;;;;;;;;;5050213;28;20505;-68
2022/10/06 05:20:21;;;;;;;25.27;9.80;;;;;;;;;;5049943;28;20041;-71
2022/10/06 05:23:27;;;;;;;46.05;10.23;;;;;;;;;;5050029;28;20044;-69
2022/10/06 05:26:33;;;;;;;28.60;9.88;;;;;;;;;;5050925;28;20044;-70
2022/10/06 05:29:38;;;;;;;28.13;10.07;;;;;;;;;;5029783;28;20054;-70
2022/10/06 05:32:49;;;;;;;28.88;10.05;;;;;;;;;;5030043;28;20044;-69
2022/10/06 05:35:55;;;;;;;54.22;13.20;;;;;;;;;;5030453;28;20052;-70
2022/10/06 05:39:00;;;;;;;29.98;10.32;;;;;;;;;;5030697;28;20041;-69
2022/10/06 05:42:07;;;;;;;31.00;9.02;;;;;;;;;;5030361;28;20105;-68
2022/10/06 05:45:12;;;;;;;24.23;8.43;;;;;;;;;;5031104;28;20362;-68
2022/10/06 05:48:17;;;;;;;41.47;9.50;;;;;;;;;;5030086;28;20046;-69
2022/10/06 05:51:23;;;;;;;30.48;8.93;;;;;;;;;;5034511;28;20402;-70
2022/10/06 05:54:28;;;;;;;32.75;9.35;;;;;;;;;;5033599;28;20033;-69
2022/10/06 05:57:32;;;;;;;26.15;10.00;;;;;;;;;;5033885;28;20042;-69
2022/10/06 06:00:36;;;;;;;28.40;9.25;;;;;;;;;;5033865;28;20049;-71
2022/10/06 06:03:42;;;;;;;22.30;9.10;;;;;;;;;;5034011;28;20359;-69
2022/10/06 06:06:50;;;;;;;25.17;9.13;;;;;;;;;;5033471;28;20042;-67
2022/10/06 06:09:59;;;;;;;22.27;8.75;;;;;;;;;;5032902;28;20066;-67
2022/10/06 06:13:03;;;;;;;19.30;7.20;;;;;;;;;;5034257;28;20370;-68
2022/10/06 06:16:15;;;;;;;23.70;7.93;;;;;;;;;;5033375;28;20493;-69
2022/10/06 06:19:19;;;;;;;15.02;5.75;;;;;;;;;;5021381;28;20030;-69
2022/10/06 06:22:23;;;;;;;19.08;5.72;;;;;;;;;;5033226;28;20041;-70
2022/10/06 06:25:28;;;;;;;14.35;4.85;;;;;;;;;;5034011;28;20042;-72
2022/10/06 06:28:36;;;;;;;13.45;5.13;;;;;;;;;;5049092;28;20049;-72
2022/10/06 06:31:42;;;;;;;15.43;4.63;;;;;;;;;;5041200;28;20041;-73
2022/10/06 06:34:47;;;;;;;15.70;6.20;;;;;;;;;;5053233;28;20045;-74
2022/10/06 06:37:51;;;;;;;16.08;5.05;;;;;;;;;;5053196;28;20041;-80
2022/10/06 06:40:56;;;;;;;15.02;4.72;;;;;;;;;;5052867;28;20045;-76
2022/10/06 06:44:01;;;;;;;11.77;4.82;;;;;;;;;;5041546;28;20041;-75
2022/10/06 06:47:16;;;;;;;14.75;5.25;;;;;;;;;;5051900;28;20041;-80
2022/10/06 06:50:21;;;;;;;12.98;6.00;;;;;;;;;;5052695;28;20049;-73
2022/10/06 06:53:25;;;;;;;17.30;5.70;;;;;;;;;;5052660;28;20033;-71
2022/10/06 06:56:33;;;;;;;15.18;5.85;;;;;;;;;;5052755;28;20481;-79
2022/10/06 06:59:39;;;;;;;23.80;6.90;;;;;;;;;;5052402;28;20041;-83
2022/10/06 07:02:51;;;;;;;17.35;7.00;;;;;;;;;;5053037;28;20404;-77
2022/10/06 07:06:07;;;;;;;20.10;6.40;;;;;;;;;;5052329;28;20037;-72
2022/10/06 07:09:13;;;;;;;20.05;6.38;;;;;;;;;;5052722;28;20048;-70
2022/10/06 07:12:18;;;;;;;17.75;6.05;;;;;;;;;;5052330;28;20033;-73
2022/10/06 07:25:48;;;;;;;13.75;6.13;;;;;;;;;;5051932;28;20045;-69
2022/10/06 07:28:52;;;;;;;20.42;6.95;;;;;;;;;;5051540;28;20049;-72
2022/10/06 07:31:57;;;;;;;14.05;5.75;;;;;;;;;;5052217;28;20036;-76
2022/10/06 07:35:03;;;;;;;13.30;5.97;;;;;;;;;;5052369;28;20037;-75
2022/10/06 07:38:08;;;;;;;14.18;5.55;;;;;;;;;;5053105;28;20523;-77
2022/10/06 07:41:33;;;;;;;14.25;4.93;;;;;;;;;;5052036;28;20037;-71
2022/10/06 07:44:39;;;;;;;20.23;6.03;;;;;;;;;;5051271;28;20389;-68
2022/10/06 07:47:44;;;;;;;10.85;5.55;;;;;;;;;;5050754;28;20056;-75
2022/10/06 07:50:50;;;;;;;13.38;5.25;;;;;;;;;;5039958;28;20045;-72
2022/10/06 07:53:59;;;;;;;9.85;4.78;;;;;;;;;;5051665;28;20374;-75
2022/10/06 07:57:33;;;;;;;13.73;5.05;;;;;;;;;;5052527;28;20033;-73
2022/10/06 08:00:37;;;;;;;13.55;5.38;;;;;;;;;;5051373;28;20036;-72
2022/10/06 08:03:43;;;;;;;16.35;4.63;;;;;;;;;;5052073;28;20032;-71
2022/10/06 08:06:48;;;;;;;29.67;5.50;;;;;;;;;;5052163;28;20033;-72
2022/10/06 08:09:52;;;;;;;13.55;4.63;;;;;;;;;;5050839;28;20189;-70
2022/10/06 08:12:57;;;;;;;15.93;4.97;;;;;;;;;;5050416;28;20037;-73
2022/10/06 08:16:15;;;;;;;23.95;4.90;;;;;;;;;;5050796;28;20041;-72
2022/10/06 08:19:19;;;;;;;13.02;4.03;;;;;;;;;;5051028;28;20041;-79
2022/10/06 08:22:28;;;;;;;16.67;4.00;;;;;;;;;;5051360;28;20049;-75
2022/10/06 08:25:35;;;;;;;23.20;4.25;;;;;;;;;;5050743;28;20473;-80
2022/10/06 08:28:42;;;;;;;12.35;4.05;;;;;;;;;;5051353;28;20041;-83
2022/10/06 08:31:47;;;;;;;12.15;3.33;;;;;;;;;;5051530;28;20037;-75
2022/10/06 08:34:52;;;;;;;7.13;3.40;;;;;;;;;;5051090;28;20045;-77
2022/10/06 08:37:57;;;;;;;8.38;2.92;;;;;;;;;;5049667;28;20041;-76
2022/10/06 08:41:01;;;;;;;6.43;3.28;;;;;;;;;;5050905;28;20473;-73
2022/10/06 08:44:25;;;;;;;8.95;3.22;;;;;;;;;;5038845;28;20370;-74
2022/10/06 08:47:33;;;;;;;6.38;3.45;;;;;;;;;;5050005;28;20492;-76
2022/10/06 08:50:44;;;;;;;14.27;3.55;;;;;;;;;;5050415;28;20053;-77
2022/10/06 08:53:56;;;;;;;15.65;4.85;;;;;;;;;;5050486;28;20033;-76
2022/10/06 08:57:13;;;;;;;9.75;3.67;;;;;;;;;;5050836;28;20045;-77
2022/10/06 09:00:17;;;;;;;7.45;3.40;;;;;;;;;;5051331;28;20044;-76
2022/10/06 09:03:23;;;;;;;7.82;3.28;;;;;;;;;;5051435;28;20033;-74
2022/10/06 09:06:51;;;;;;;8.80;3.08;;;;;;;;;;5050097;28;20374;-75
2022/10/06 09:09:55;;;;;;;15.40;3.80;;;;;;;;;;5050832;28;20048;-75
2022/10/06 09:13:06;;;;;;;11.48;3.53;;;;;;;;;;5051209;28;20049;-75
2022/10/06 09:16:13;;;;;;;8.25;2.40;;;;;;;;;;5050992;28;20041;-75
2022/10/06 09:19:22;;;;;;;5.18;2.50;;;;;;;;;;5049892;28;20040;-75
2022/10/06 09:22:29;;;;;;;8.02;2.58;;;;;;;;;;5051039;28;20037;-75
2022/10/06 09:25:33;;;;;;;5.00;2.42;;;;;;;;;;5050941;28;20036;-75
2022/10/06 09:28:37;;;;;;;4.90;2.60;;;;;;;;;;5050344;28;20057;-75
2022/10/06 09:31:49;;;;;;;4.10;2.38;;;;;;;;;;5050876;28;20029;-76
2022/10/06 09:34:54;;;;;;;5.45;2.40;;;;;;;;;;5050600;28;20037;-76
2022/10/06 09:38:03;;;;;;;7.45;2.70;;;;;;;;;;5050974;28;20036;-76
2022/10/06 09:41:07;;;;;;;8.52;2.65;;;;;;;;;;5051100;28;20048;-77
2022/10/06 09:44:23;;;;;;;9.25;3.05;;;;;;;;;;5049279;28;20041;-78
2022/10/06 09:47:27;;;;;;;11.80;3.20;;;;;;;;;;5050643;28;20045;-75
2022/10/06 09:50:34;;;;;;;7.68;2.97;;;;;;;;;;5049893;28;20045;-72
2022/10/06 09:53:38;;;;;;;7.82;3.35;;;;;;;;;;5050386;28;20481;-77
2022/10/06 09:56:43;;;;;;;6.40;3.35;;;;;;;;;;5050381;28;20045;-77
2022/10/06 09:59:48;;;;;;;4.63;2.53;;;;;;;;;;5050516;28;20037;-74
2022/10/06 10:03:03;;;;;;;5.70;2.88;;;;;;;;;;5050807;28;20481;-78
2022/10/06 10:06:07;;;;;;;5.13;2.53;;;;;;;;;;5038057;28;20033;-75
2022/10/06 10:09:18;;;;;;;6.88;2.75;;;;;;;;;;5050193;28;20041;-76
2022/10/06 10:12:29;;;;;;;6.22;2.70;;;;;;;;;;5050615;28;20037;-72
2022/10/06 10:15:33;;;;;;;;;;;;;;;;;;5050770;28;20386;-73
2022/10/06 10:18:44;;;;;;;6.05;1.92;;;;;;;;;;5050273;28;19919;-75
2022/10/06 10:21:48;;;;;;;5.37;1.67;;;;;;;;;;5050058;28;20040;-77
2022/10/06 10:25:05;;;;;;;3.97;1.65;;;;;;;;;;5050221;28;20275;-76
2022/10/06 10:28:14;;;;;;;3.80;1.70;;;;;;;;;;5037751;28;20049;-79
2022/10/06 10:31:22;;;;;;;6.40;2.17;;;;;;;;;;5050276;28;20041;-79
2022/10/06 10:34:45;;;;;;;9.85;2.22;;;;;;;;;;5050103;28;20033;-80
2022/10/06 10:37:52;;;;;;;10.48;2.60;;;;;;;;;;5054091;28;20033;-75
2022/10/06 10:41:23;;;;;;;7.22;1.70;;;;;;;;;;5053681;28;20033;-73
2022/10/06 10:44:31;;;;;;;5.87;1.80;;;;;;;;;;5053646;28;20473;-72
2022/10/06 10:47:41;;;;;;;4.47;1.63;;;;;;;;;;5052790;28;20279;-75
2022/10/06 10:50:48;;;;;;;2.83;1.70;;;;;;;;;;5053197;28;20053;-72
2022/10/06 10:53:58;;;;;;;2.45;1.65;;;;;;;;;;5053456;28;20394;-70
2022/10/06 10:57:03;;;;;;;2.65;1.48;;;;;;;;;;5053234;28;20025;-70
2022/10/06 11:00:11;;;;;;;6.40;2.17;;;;;;;;;;5052505;28;20032;-71
2022/10/06 11:03:15;;;;;;;5.18;1.75;;;;;;;;;;5052574;28;20028;-71
2022/10/06 11:06:26;;;;;;;4.22;1.80;;;;;;;;;;5053012;28;20041;-71
2022/10/06 11:09:36;;;;;;;3.72;2.00;;;;;;;;;;5051951;28;20045;-71
2022/10/06 11:12:55;;;;;;;3.67;1.50;;;;;;;;;;5053171;28;20041;-70
2022/10/06 11:16:13;;;;;;;7.53;2.70;;;;;;;;;;5053190;28;20041;-70
2022/10/06 11:19:20;;;;;;;4.40;1.98;;;;;;;;;;5052367;28;20041;-71
2022/10/06 11:22:31;;;;;;;4.53;1.70;;;;;;;;;;5051544;28;20041;-72
2022/10/06 11:25:43;;;;;;;8.13;1.70;;;;;;;;;;5051852;28;20033;-72
2022/10/06 11:28:51;;;;;;;4.75;1.92;;;;;;;;;;5052478;28;20295;-72
2022/10/06 11:32:04;;;;;;;4.38;1.60;;;;;;;;;;5052053;28;20037;-74
2022/10/06 11:35:20;;;;;;;5.47;1.67;;;;;;;;;;5052637;28;20036;-70
2022/10/06 11:38:29;;;;;;;10.60;2.55;;;;;;;;;;5053067;28;20037;-73
2022/10/06 11:41:38;;;;;;;4.82;1.70;;;;;;;;;;5052911;28;20049;-73
2022/10/06 11:44:44;;;;;;;4.47;1.70;;;;;;;;;;5052274;28;20025;-71
2022/10/06 11:47:54;;;;;;;7.53;1.92;;;;;;;;;;5052813;28;20037;-72
2022/10/06 11:51:17;;;;;;;4.23;1.80;;;;;;;;;;5052219;28;20057;-70
2022/10/06 11:54:40;;;;;;;6.50;1.75;;;;;;;;;;5052597;28;20029;-72
2022/10/06 11:58:07;;;;;;;2.60;1.58;;;;;;;;;;5052462;28;20045;-70
2022/10/06 12:01:32;;;;;;;6.53;2.05;;;;;;;;;;5052077;28;20037;-72
2022/10/06 12:04:36;;;;;;;4.93;2.35;;;;;;;;;;5052202;28;20037;-70
2022/10/06 12:07:59;;;;;;;6.50;1.70;;;;;;;;;;5051576;28;20040;-69
2022/10/06 12:11:04;;;;;;;3.35;1.63;;;;;;;;;;5052372;28;20036;-72
2022/10/06 12:14:16;;;;;;;3.42;1.52;;;;;;;;;;5052128;28;20033;-71
2022/10/06 12:17:40;;;;;;;4.97;2.00;;;;;;;;;;5051926;28;20041;-73
2022/10/06 12:21:05;;;;;;;3.22;1.50;;;;;;;;;;5052102;28;20033;-72
2022/10/06 12:24:47;;;;;;;4.25;1.80;;;;;;;;;;5051672;28;20049;-74
2022/10/06 12:28:00;;;;;;;5.78;1.92;;;;;;;;;;5049412;28;20056;-74
2022/10/06 12:31:20;;;;;;;3.42;1.55;;;;;;;;;;5049669;28;20037;-77
2022/10/06 12:34:37;;;;;;;2.47;1.40;;;;;;;;;;5052100;28;20037;-81
2022/10/06 12:37:42;;;;;;;3.83;1.70;;;;;;;;;;5051765;28;20033;-82
2022/10/06 12:40:53;;;;;;;2.28;1.30;;;;;;;;;;5051876;28;20037;-77
2022/10/06 12:43:59;;;;;;;;;;;;;;;;;;5051983;28;20382;-76
2022/10/06 12:47:19;;;;;;;5.18;1.80;;;;;;;;;;5051743;28;19931;-81
2022/10/06 12:50:25;;;;;;;2.22;1.40;;;;;;;;;;5050317;28;20040;-80
2022/10/06 12:53:32;;;;;;;3.78;1.45;;;;;;;;;;5049948;28;20040;-76
2022/10/06 12:56:39;;;;;;;6.72;1.88;;;;;;;;;;5051593;28;20493;-77
2022/10/06 12:59:43;;;;;;;3.92;1.92;;;;;;;;;;5051013;28;20033;-78
2022/10/06 13:02:47;;;;;;;5.72;2.35;;;;;;;;;;5051439;28;20481;-77
2022/10/06 13:05:57;;;;;;;4.25;1.98;;;;;;;;;;5051456;28;20028;-77
2022/10/06 13:09:04;;;;;;;7.53;2.25;;;;;;;;;;5051401;28;20382;-78
2022/10/06 13:12:25;;;;;;;8.15;2.53;;;;;;;;;;5050874;28;20393;-73
2022/10/06 13:15:40;;;;;;;7.55;2.38;;;;;;;;;;5050482;28;20032;-82
2022/10/06 13:18:44;;;;;;;5.07;2.10;;;;;;;;;;5048652;28;20041;-79
2022/10/06 13:21:49;;;;;;;5.30;3.15;;;;;;;;;;5051213;28;20040;-74
2022/10/06 13:24:59;;;;;;;17.77;2.78;;;;;;;;;;5050969;28;20107;-72
2022/10/06 13:28:03;;;;;;;3.72;1.98;;;;;;;;;;5050534;28;20056;-72
2022/10/06 13:31:43;;;;;;;5.93;2.22;;;;;;;;;;5050663;28;20438;-69
2022/10/06 13:34:47;;;;;;;9.45;2.80;;;;;;;;;;5048491;28;20037;-74
2022/10/06 13:37:52;;;;;;;7.78;2.92;;;;;;;;;;5050611;28;20041;-72
2022/10/06 13:41:22;;;;;;;6.15;2.40;;;;;;;;;;5050913;28;20045;-71
2022/10/06 13:44:29;;;;;;;3.90;2.27;;;;;;;;;;5050482;28;20040;-71
2022/10/06 13:47:35;;;;;;;6.70;2.20;;;;;;;;;;5050482;28;20283;-71
2022/10/06 13:50:44;;;;;;;8.18;2.28;;;;;;;;;;5050608;28;20045;-71
2022/10/06 13:53:48;;;;;;;8.32;2.40;;;;;;;;;;5050908;28;20453;-72
2022/10/06 13:56:52;;;;;;;3.85;1.98;;;;;;;;;;5050585;28;20425;-71
2022/10/06 14:00:15;;;;;;;6.32;2.20;;;;;;;;;;5050408;28;20037;-71
2022/10/06 14:03:25;;;;;;;2.40;1.92;;;;;;;;;;5050010;28;20044;-72
2022/10/06 14:06:29;;;;;;;6.47;2.25;;;;;;;;;;5050433;28;20481;-73
2022/10/06 14:09:34;;;;;;;9.80;2.58;;;;;;;;;;5050227;28;20049;-72
2022/10/06 14:12:42;;;;;;;4.45;2.50;;;;;;;;;;5054055;28;20048;-71
2022/10/06 14:15:49;;;;;;;8.00;2.30;;;;;;;;;;5053833;28;20045;-72
2022/10/06 14:18:55;;;;;;;5.10;2.30;;;;;;;;;;5054019;28;20378;-72
2022/10/06 14:22:01;;;;;;;9.48;3.03;;;;;;;;;;5053950;28;20036;-71
2022/10/06 14:25:14;;;;;;;3.80;2.20;;;;;;;;;;5054242;28;20033;-73
2022/10/06 14:28:18;;;;;;;5.68;2.05;;;;;;;;;;5053890;28;20540;-73
2022/10/06 14:31:23;;;;;;;4.93;2.20;;;;;;;;;;5053844;28;20041;-73
2022/10/06 14:34:28;;;;;;;7.20;2.33;;;;;;;;;;5054249;28;20033;-75
2022/10/06 14:37:33;;;;;;;4.75;1.88;;;;;;;;;;5053893;28;20488;-76
2022/10/06 14:40:41;;;;;;;6.53;2.20;;;;;;;;;;5053555;28;20037;-75
2022/10/06 14:43:46;;;;;;;4.30;2.22;;;;;;;;;;5053711;28;20489;-73
2022/10/06 14:46:51;;;;;;;12.98;3.58;;;;;;;;;;5052978;28;20033;-71
2022/10/06 14:49:55;;;;;;;4.05;2.40;;;;;;;;;;5053593;28;20037;-75
2022/10/06 14:52:59;;;;;;;5.03;2.42;;;;;;;;;;5053923;28;20037;-76
2022/10/06 14:56:05;;;;;;;7.47;2.80;;;;;;;;;;5053891;28;20049;-78
2022/10/06 14:59:15;;;;;;;7.75;2.47;;;;;;;;;;5053662;28;20108;-73
2022/10/06 15:02:20;;;;;;;8.07;2.47;;;;;;;;;;5053182;28;20037;-76
2022/10/06 15:05:24;;;;;;;8.75;2.97;;;;;;;;;;5053773;28;20033;-76
2022/10/06 15:08:29;;;;;;;6.38;2.92;;;;;;;;;;5053241;28;20045;-75
2022/10/06 15:11:33;;;;;;;11.88;2.60;;;;;;;;;;5053343;28;20045;-73
2022/10/06 15:14:38;;;;;;;9.02;2.35;;;;;;;;;;5052326;28;20037;-71
2022/10/06 15:17:42;;;;;;;9.57;2.30;;;;;;;;;;5053199;28;20385;-74
2022/10/06 15:20:47;;;;;;;17.75;3.92;;;;;;;;;;5052731;28;20037;-82
2022/10/06 15:23:55;;;;;;;15.80;2.78;;;;;;;;;;5053529;28;20045;-78
2022/10/06 15:30:22;;;;;;;10.07;2.70;;;;;;;;;;5052346;28;20045;-73
2022/10/06 15:33:29;;;;;;;6.97;3.03;;;;;;;;;;5053077;28;20029;-73
2022/10/06 15:36:35;;;;;;;12.30;3.42;;;;;;;;;;5053164;28;20040;-70
2022/10/06 15:39:39;;;;;;;11.98;3.00;;;;;;;;;;5052642;28;20144;-72
2022/10/06 15:42:45;;;;;;;10.02;3.53;;;;;;;;;;5052640;28;20037;-74
2022/10/06 15:45:54;;;;;;;13.13;2.78;;;;;;;;;;5053219;28;20033;-72
2022/10/06 15:49:00;;;;;;;14.32;3.78;;;;;;;;;;5051980;28;20037;-73
2022/10/06 15:52:04;;;;;;;5.05;3.08;;;;;;;;;;5052904;28;20041;-73
2022/10/06 15:55:09;;;;;;;9.07;3.00;;;;;;;;;;5052936;28;20041;-67
2022/10/06 15:58:14;;;;;;;10.48;3.42;;;;;;;;;;5052892;28;20041;-70
2022/10/06 16:01:26;;;;;;;7.40;2.70;;;;;;;;;;5051174;28;20041;-75
2022/10/06 16:07:41;;;;;;;18.00;2.58;;;;;;;;;;5052049;28;20029;-76
2022/10/06 16:10:48;;;;;;;6.15;2.53;;;;;;;;;;5052148;28;20044;-76
2022/10/06 16:13:53;;;;;;;9.43;2.90;;;;;;;;;;5052087;28;20037;-76
2022/10/06 16:16:58;;;;;;;6.05;2.40;;;;;;;;;;5051868;28;20037;-72
2022/10/06 16:20:04;;;;;;;14.20;3.97;;;;;;;;;;5051499;28;20473;-70
2022/10/06 16:23:08;;;;;;;17.92;3.42;;;;;;;;;;5050929;28;20041;-77
2022/10/06 16:26:12;;;;;;;15.90;3.03;;;;;;;;;;5050676;28;20037;-73
2022/10/06 16:29:18;;;;;;;11.15;3.60;;;;;;;;;;5011163;28;20053;-73
2022/10/06 16:32:22;;;;;;;13.85;4.28;;;;;;;;;;5010283;28;20050;-79
2022/10/06 16:35:26;;;;;;;22.65;4.80;;;;;;;;;;5011710;28;20608;-81
2022/10/06 16:38:30;;;;;;;16.50;4.35;;;;;;;;;;5011848;28;20034;-77
2022/10/06 16:41:34;;;;;;;14.55;4.72;;;;;;;;;;5011938;28;20037;-80
2022/10/06 16:44:39;;;;;;;15.27;4.35;;;;;;;;;;5011966;28;20042;-78
2022/10/06 16:47:43;;;;;;;12.60;3.75;;;;;;;;;;5012136;28;20065;-78
2022/10/06 16:50:47;;;;;;;12.65;3.47;;;;;;;;;;5010986;28;20049;-75
2022/10/06 16:53:53;;;;;;;16.45;4.25;;;;;;;;;;5011919;28;20042;-73
2022/10/06 16:57:00;;;;;;;20.95;5.05;;;;;;;;;;5010497;28;20042;-73
2022/10/06 17:00:05;;;;;;;16.85;4.93;;;;;;;;;;4998757;28;20034;-75
2022/10/06 17:03:09;;;;;;;10.25;3.80;;;;;;;;;;5011666;28;20046;-74
2022/10/06 17:06:15;;;;;;;13.93;4.55;;;;;;;;;;5011251;28;20037;-74
2022/10/06 17:09:21;;;;;;;14.38;4.20;;;;;;;;;;5011302;28;20037;-74
2022/10/06 17:12:25;;;;;;;17.48;4.10;;;;;;;;;;5011599;28;20049;-75
2022/10/06 17:15:29;;;;;;;14.20;4.00;;;;;;;;;;5011164;28;20038;-73
2022/10/06 17:18:34;;;;;;;9.75;4.10;;;;;;;;;;5011276;28;20374;-74
2022/10/06 17:21:38;;;;;;;12.93;4.07;;;;;;;;;;5010357;28;20378;-74
2022/10/06 17:24:42;;;;;;;11.77;4.20;;;;;;;;;;5010872;28;20034;-74
2022/10/06 17:27:47;;;;;;;14.98;4.22;;;;;;;;;;5030118;28;20041;-73
2022/10/06 17:30:51;;;;;;;15.30;5.30;;;;;;;;;;5050730;28;20045;-72
2022/10/06 17:33:56;;;;;;;24.05;5.97;;;;;;;;;;5050493;28;20029;-75
2022/10/06 17:37:01;;;;;;;24.55;6.28;;;;;;;;;;5049808;28;20373;-74
2022/10/06 17:40:07;;;;;;;18.92;5.07;;;;;;;;;;5050375;28;20037;-75
2022/10/06 17:43:12;;;;;;;27.98;5.93;;;;;;;;;;5050320;28;20378;-75
2022/10/06 17:46:20;;;;;;;28.42;6.32;;;;;;;;;;5054073;28;20041;-75
2022/10/06 17:49:25;;;;;;;32.83;6.60;;;;;;;;;;5054605;28;20358;-75
2022/10/06 17:52:30;;;;;;;24.08;5.88;;;;;;;;;;5054646;28;20041;-75
2022/10/06 17:55:35;;;;;;;12.27;6.03;;;;;;;;;;5053394;28;20489;-74
2022/10/06 17:58:44;;;;;;;20.23;5.88;;;;;;;;;;5054624;28;20504;-74
2022/10/06 18:01:50;;;;;;;19.00;5.15;;;;;;;;;;5054542;28;20045;-74
2022/10/06 18:04:55;;;;;;;11.73;5.47;;;;;;;;;;5054262;28;20036;-76
2022/10/06 18:07:59;;;;;;;19.92;4.88;;;;;;;;;;5054500;28;20037;-75
2022/10/06 18:14:31;;;;;;;18.67;6.40;;;;;;;;;;5054133;28;20033;-76
2022/10/06 18:17:35;;;;;;;33.78;7.72;;;;;;;;;;5054546;28;20033;-75
2022/10/06 18:20:40;;;;;;;23.00;6.45;;;;;;;;;;5053731;28;20473;-75
2022/10/06 18:23:45;;;;;;;36.53;6.95;;;;;;;;;;5054393;28;20044;-73
2022/10/06 18:26:50;;;;;;;31.55;7.75;;;;;;;;;;5054088;28;20029;-73
2022/10/06 18:29:54;;;;;;;29.88;8.77;;;;;;;;;;5053993;28;20041;-74
2022/10/06 18:32:59;;;;;;;48.85;10.07;;;;;;;;;;5054113;28;20390;-72
2022/10/06 18:36:04;;;;;;;32.90;10.30;;;;;;;;;;5054135;28;20056;-73
2022/10/06 18:39:09;;;;;;;28.70;9.23;;;;;;;;;;5053803;28;20520;-73
2022/10/06 18:42:13;;;;;;;35.13;9.23;;;;;;;;;;5051714;28;20200;-75
2022/10/06 18:48:55;;;;;;;23.90;8.35;;;;;;;;;;5053581;28;20036;-74
2022/10/06 18:52:00;;;;;;;31.63;8.10;;;;;;;;;;5053477;28;20057;-75
2022/10/06 18:55:05;;;;;;;22.45;8.07;;;;;;;;;;5053700;28;20497;-74
2022/10/06 18:58:09;;;;;;;26.00;8.77;;;;;;;;;;5053734;28;20045;-74
2022/10/06 19:01:13;;;;;;;33.63;10.25;;;;;;;;;;5053413;28;20033;-73